sensor_id;sensor_type;location;lat;lon;timestamp;temperature;humidity
27224;DHT22;14965;50.660;13.226;2022-11-27T00:00:10;2.20;99.90
27224;DHT22;14965;50.660;13.226;2022-11-27T00:02:38;2.20;99.90
27224;DHT22;14965;50.660;13.226;2022-11-27T00:05:04;2.20;99.90
27224;DHT22;14965;50.660;13.226;2022-11-27T00:07:30;2.10;99.90
27224;DHT22;14965;50.660;13.226;2022-11-27T00:09:56;2.00;99.90
27224;DHT22;14965;50.660;13.226;2022-11-27T00:12:22;1.90;99.90
27224;DHT22;14965;50.660;13.226;2022-11-27T00:14:48;1.80;99.90
27224;DHT22;14965;50.660;13.226;2022-11-27T00:17:13;1.80;99.90
27224;DHT22;14965;50.660;13.226;2022-11-27T00:19:41;1.70;99.90
27224;DHT22;14965;50.660;13.226;2022-11-27T00:22:06;1.70;99.90
27224;DHT22;14965;50.660;13.226;2022-11-27T00:24:32;1.60;99.90
27224;DHT22;14965;50.660;13.226;2022-11-27T00:26:58;1.60;99.90
27224;DHT22;14965;50.660;13.226;2022-11-27T00:29:24;1.60;99.90
27224;DHT22;14965;50.660;13.226;2022-11-27T00:31:49;1.60;99.90
27224;DHT22;14965;50.660;13.226;2022-11-27T00:34:15;1.60;99.90
27224;DHT22;14965;50.660;13.226;2022-11-27T00:36:42;1.60;99.90
27224;DHT22;14965;50.660;13.226;2022-11-27T00:39:08;1.60;99.90
27224;DHT22;14965;50.660;13.226;2022-11-27T00:41:34;1.60;99.90
27224;DHT22;14965;50.660;13.226;2022-11-27T00:44:00;1.50;99.90
27224;DHT22;14965;50.660;13.226;2022-11-27T00:46:26;1.40;99.90
27224;DHT22;14965;50.660;13.226;2022-11-27T00:48:53;1.40;99.90
27224;DHT22;14965;50.660;13.226;2022-11-27T00:51:20;1.30;99.90
27224;DHT22;14965;50.660;13.226;2022-11-27T00:53:48;1.30;99.90
27224;DHT22;14965;50.660;13.226;2022-11-27T00:56:15;1.30;99.90
27224;DHT22;14965;50.660;13.226;2022-11-27T00:58:43;1.20;99.90
27224;DHT22;14965;50.660;13.226;2022-11-27T01:01:12;1.20;99.90
27224;DHT22;14965;50.660;13.226;2022-11-27T01:03:40;1.10;99.90
27224;DHT22;14965;50.660;13.226;2022-11-27T01:06:06;1.10;99.90
27224;DHT22;14965;50.660;13.226;2022-11-27T01:08:32;1.10;99.90
27224;DHT22;14965;50.660;13.226;2022-11-27T01:11:00;1.10;99.90
27224;DHT22;14965;50.660;13.226;2022-11-27T01:13:27;1.10;99.90
27224;DHT22;14965;50.660;13.226;2022-11-27T01:15:57;1.10;99.90
27224;DHT22;14965;50.660;13.226;2022-11-27T01:18:24;1.10;99.90
27224;DHT22;14965;50.660;13.226;2022-11-27T01:20:50;1.10;99.90
27224;DHT22;14965;50.660;13.226;2022-11-27T01:23:16;1.10;99.90
27224;DHT22;14965;50.660;13.226;2022-11-27T01:25:42;1.10;99.90
27224;DHT22;14965;50.660;13.226;2022-11-27T01:28:09;1.10;99.90
27224;DHT22;14965;50.660;13.226;2022-11-27T01:30:35;1.00;99.90
27224;DHT22;14965;50.660;13.226;2022-11-27T01:33:01;1.00;99.90
27224;DHT22;14965;50.660;13.226;2022-11-27T01:35:27;1.00;99.90
27224;DHT22;14965;50.660;13.226;2022-11-27T01:37:53;0.90;99.90
27224;DHT22;14965;50.660;13.226;2022-11-27T01:40:19;0.90;99.90
27224;DHT22;14965;50.660;13.226;2022-11-27T01:42:45;0.80;99.90
27224;DHT22;14965;50.660;13.226;2022-11-27T01:45:12;0.80;99.90
27224;DHT22;14965;50.660;13.226;2022-11-27T01:47:42;0.80;99.90
27224;DHT22;14965;50.660;13.226;2022-11-27T01:50:12;0.70;99.90
27224;DHT22;14965;50.660;13.226;2022-11-27T01:52:43;0.70;99.90
27224;DHT22;14965;50.660;13.226;2022-11-27T01:55:13;0.70;99.90
27224;DHT22;14965;50.660;13.226;2022-11-27T01:57:44;0.70;99.90
27224;DHT22;14965;50.660;13.226;2022-11-27T02:00:14;0.60;99.90
27224;DHT22;14965;50.660;13.226;2022-11-27T02:02:42;0.60;99.90
27224;DHT22;14965;50.660;13.226;2022-11-27T02:05:09;0.60;99.90
27224;DHT22;14965;50.660;13.226;2022-11-27T02:07:37;0.60;99.90
27224;DHT22;14965;50.660;13.226;2022-11-27T02:10:04;0.60;99.90
27224;DHT22;14965;50.660;13.226;2022-11-27T02:12:32;0.60;99.90
27224;DHT22;14965;50.660;13.226;2022-11-27T02:15:10;0.60;99.90
27224;DHT22;14965;50.660;13.226;2022-11-27T02:17:44;0.50;99.90
27224;DHT22;14965;50.660;13.226;2022-11-27T02:20:23;0.50;99.90
27224;DHT22;14965;50.660;13.226;2022-11-27T02:22:59;0.50;99.90
27224;DHT22;14965;50.660;13.226;2022-11-27T02:25:36;0.40;99.90
27224;DHT22;14965;50.660;13.226;2022-11-27T02:28:16;0.40;99.90
27224;DHT22;14965;50.660;13.226;2022-11-27T02:30:54;0.40;99.90
27224;DHT22;14965;50.660;13.226;2022-11-27T02:33:26;0.30;99.90
27224;DHT22;14965;50.660;13.226;2022-11-27T02:35:57;0.30;99.90
27224;DHT22;14965;50.660;13.226;2022-11-27T02:38:30;0.30;99.90
27224;DHT22;14965;50.660;13.226;2022-11-27T02:41:01;0.30;99.90
27224;DHT22;14965;50.660;13.226;2022-11-27T02:43:32;0.30;99.90
27224;DHT22;14965;50.660;13.226;2022-11-27T02:46:03;0.30;99.90
27224;DHT22;14965;50.660;13.226;2022-11-27T02:48:33;0.20;99.90
27224;DHT22;14965;50.660;13.226;2022-11-27T02:51:02;0.20;99.90
27224;DHT22;14965;50.660;13.226;2022-11-27T02:53:30;0.20;99.90
27224;DHT22;14965;50.660;13.226;2022-11-27T02:56:00;0.20;99.90
27224;DHT22;14965;50.660;13.226;2022-11-27T02:58:29;0.10;99.90
27224;DHT22;14965;50.660;13.226;2022-11-27T03:00:55;0.20;99.90
27224;DHT22;14965;50.660;13.226;2022-11-27T03:03:25;0.10;99.90
27224;DHT22;14965;50.660;13.226;2022-11-27T03:05:57;0.10;99.90
27224;DHT22;14965;50.660;13.226;2022-11-27T03:08:28;0.10;99.90
27224;DHT22;14965;50.660;13.226;2022-11-27T03:10:59;0.10;99.90
27224;DHT22;14965;50.660;13.226;2022-11-27T03:13:29;0.10;99.90
27224;DHT22;14965;50.660;13.226;2022-11-27T03:16:04;0.10;99.90
27224;DHT22;14965;50.660;13.226;2022-11-27T03:18:37;0.10;99.90
27224;DHT22;14965;50.660;13.226;2022-11-27T03:21:08;0.00;99.90
27224;DHT22;14965;50.660;13.226;2022-11-27T03:23:43;0.10;99.90
27224;DHT22;14965;50.660;13.226;2022-11-27T03:26:08;0.10;99.90
27224;DHT22;14965;50.660;13.226;2022-11-27T03:28:34;0.00;99.90
27224;DHT22;14965;50.660;13.226;2022-11-27T03:31:01;0.10;99.90
27224;DHT22;14965;50.660;13.226;2022-11-27T03:33:26;0.10;99.90
27224;DHT22;14965;50.660;13.226;2022-11-27T03:35:54;0.10;99.90
27224;DHT22;14965;50.660;13.226;2022-11-27T03:38:20;0.00;99.90
27224;DHT22;14965;50.660;13.226;2022-11-27T03:40:48;0.00;99.90
27224;DHT22;14965;50.660;13.226;2022-11-27T03:43:22;0.00;99.90
27224;DHT22;14965;50.660;13.226;2022-11-27T03:45:50;0.10;99.90
27224;DHT22;14965;50.660;13.226;2022-11-27T03:48:23;0.20;99.90
27224;DHT22;14965;50.660;13.226;2022-11-27T03:51:00;0.20;99.90
27224;DHT22;14965;50.660;13.226;2022-11-27T03:53:33;0.20;99.90
27224;DHT22;14965;50.660;13.226;2022-11-27T03:56:09;0.20;99.90
27224;DHT22;14965;50.660;13.226;2022-11-27T03:58:39;0.20;99.90
27224;DHT22;14965;50.660;13.226;2022-11-27T04:01:12;0.20;99.90
27224;DHT22;14965;50.660;13.226;2022-11-27T04:03:41;0.10;99.90
27224;DHT22;14965;50.660;13.226;2022-11-27T04:06:08;0.10;99.90
27224;DHT22;14965;50.660;13.226;2022-11-27T04:08:34;0.10;99.90
27224;DHT22;14965;50.660;13.226;2022-11-27T04:11:00;0.10;99.90
27224;DHT22;14965;50.660;13.226;2022-11-27T04:13:26;0.10;99.90
27224;DHT22;14965;50.660;13.226;2022-11-27T04:15:51;0.00;99.90
27224;DHT22;14965;50.660;13.226;2022-11-27T04:18:17;0.00;99.90
27224;DHT22;14965;50.660;13.226;2022-11-27T04:20:43;0.00;99.90
27224;DHT22;14965;50.660;13.226;2022-11-27T04:23:10;-0.10;99.90
27224;DHT22;14965;50.660;13.226;2022-11-27T04:25:36;-0.10;99.90
27224;DHT22;14965;50.660;13.226;2022-11-27T04:28:02;-0.20;99.90
27224;DHT22;14965;50.660;13.226;2022-11-27T04:30:27;-0.20;99.90
27224;DHT22;14965;50.660;13.226;2022-11-27T04:32:53;-0.20;99.90
27224;DHT22;14965;50.660;13.226;2022-11-27T04:35:19;-0.30;99.90
27224;DHT22;14965;50.660;13.226;2022-11-27T04:37:45;-0.30;99.90
27224;DHT22;14965;50.660;13.226;2022-11-27T04:40:12;-0.30;99.90
27224;DHT22;14965;50.660;13.226;2022-11-27T04:42:40;-0.30;99.90
27224;DHT22;14965;50.660;13.226;2022-11-27T04:45:06;-0.30;99.90
27224;DHT22;14965;50.660;13.226;2022-11-27T04:47:32;-0.30;99.90
27224;DHT22;14965;50.660;13.226;2022-11-27T04:49:57;-0.30;99.90
27224;DHT22;14965;50.660;13.226;2022-11-27T04:52:23;-0.30;99.90
27224;DHT22;14965;50.660;13.226;2022-11-27T04:54:49;-0.30;99.90
27224;DHT22;14965;50.660;13.226;2022-11-27T04:57:16;-0.30;99.90
27224;DHT22;14965;50.660;13.226;2022-11-27T04:59:42;-0.40;99.90
27224;DHT22;14965;50.660;13.226;2022-11-27T05:02:08;-0.30;99.90
27224;DHT22;14965;50.660;13.226;2022-11-27T05:04:34;-0.30;99.90
27224;DHT22;14965;50.660;13.226;2022-11-27T05:07:00;-0.30;99.90
27224;DHT22;14965;50.660;13.226;2022-11-27T05:09:25;-0.30;99.90
27224;DHT22;14965;50.660;13.226;2022-11-27T05:11:51;-0.30;99.90
27224;DHT22;14965;50.660;13.226;2022-11-27T05:14:18;-0.30;99.90
27224;DHT22;14965;50.660;13.226;2022-11-27T05:16:45;-0.30;99.90
27224;DHT22;14965;50.660;13.226;2022-11-27T05:19:12;-0.30;99.90
27224;DHT22;14965;50.660;13.226;2022-11-27T05:21:38;-0.40;99.90
27224;DHT22;14965;50.660;13.226;2022-11-27T05:24:05;-0.30;99.90
27224;DHT22;14965;50.660;13.226;2022-11-27T05:26:31;-0.30;99.90
27224;DHT22;14965;50.660;13.226;2022-11-27T05:28:57;-0.40;99.90
27224;DHT22;14965;50.660;13.226;2022-11-27T05:31:24;-0.50;99.90
27224;DHT22;14965;50.660;13.226;2022-11-27T05:33:50;-0.50;99.90
27224;DHT22;14965;50.660;13.226;2022-11-27T05:36:16;-0.60;99.90
27224;DHT22;14965;50.660;13.226;2022-11-27T05:38:42;-0.60;99.90
27224;DHT22;14965;50.660;13.226;2022-11-27T05:41:08;-0.50;99.90
27224;DHT22;14965;50.660;13.226;2022-11-27T05:43:33;-0.50;99.90
27224;DHT22;14965;50.660;13.226;2022-11-27T05:46:02;-0.50;99.90
27224;DHT22;14965;50.660;13.226;2022-11-27T05:48:30;-0.50;99.90
27224;DHT22;14965;50.660;13.226;2022-11-27T05:50:56;-0.50;99.90
27224;DHT22;14965;50.660;13.226;2022-11-27T05:53:22;-0.50;99.90
27224;DHT22;14965;50.660;13.226;2022-11-27T05:55:48;-0.40;99.90
27224;DHT22;14965;50.660;13.226;2022-11-27T05:58:14;-0.50;99.90
27224;DHT22;14965;50.660;13.226;2022-11-27T06:00:39;-0.50;99.90
27224;DHT22;14965;50.660;13.226;2022-11-27T06:03:05;-0.60;99.90
27224;DHT22;14965;50.660;13.226;2022-11-27T06:05:32;-0.60;99.90
27224;DHT22;14965;50.660;13.226;2022-11-27T06:07:59;-0.60;99.90
27224;DHT22;14965;50.660;13.226;2022-11-27T06:10:25;-0.60;99.90
27224;DHT22;14965;50.660;13.226;2022-11-27T06:12:51;-0.60;99.90
27224;DHT22;14965;50.660;13.226;2022-11-27T06:15:16;-0.50;99.90
27224;DHT22;14965;50.660;13.226;2022-11-27T06:17:42;-0.30;99.90
27224;DHT22;14965;50.660;13.226;2022-11-27T06:20:08;-0.10;99.90
27224;DHT22;14965;50.660;13.226;2022-11-27T06:22:36;0.20;99.90
27224;DHT22;14965;50.660;13.226;2022-11-27T06:25:01;0.30;99.90
27224;DHT22;14965;50.660;13.226;2022-11-27T06:27:30;0.60;99.90
27224;DHT22;14965;50.660;13.226;2022-11-27T06:29:56;0.50;99.90
27224;DHT22;14965;50.660;13.226;2022-11-27T06:32:22;0.60;99.90
27224;DHT22;14965;50.660;13.226;2022-11-27T06:34:48;0.50;99.90
27224;DHT22;14965;50.660;13.226;2022-11-27T06:37:14;0.40;99.90
27224;DHT22;14965;50.660;13.226;2022-11-27T06:39:41;0.30;99.90
27224;DHT22;14965;50.660;13.226;2022-11-27T06:42:07;0.20;99.90
27224;DHT22;14965;50.660;13.226;2022-11-27T06:44:33;0.10;99.90
27224;DHT22;14965;50.660;13.226;2022-11-27T06:46:58;0.00;99.90
27224;DHT22;14965;50.660;13.226;2022-11-27T06:49:24;0.00;99.90
27224;DHT22;14965;50.660;13.226;2022-11-27T06:51:50;0.00;99.90
27224;DHT22;14965;50.660;13.226;2022-11-27T06:54:16;-0.10;99.90
27224;DHT22;14965;50.660;13.226;2022-11-27T06:56:43;-0.10;99.90
27224;DHT22;14965;50.660;13.226;2022-11-27T06:59:10;0.00;99.90
27224;DHT22;14965;50.660;13.226;2022-11-27T07:01:37;0.00;99.90
27224;DHT22;14965;50.660;13.226;2022-11-27T07:04:02;0.00;99.90
27224;DHT22;14965;50.660;13.226;2022-11-27T07:06:28;0.00;99.90
27224;DHT22;14965;50.660;13.226;2022-11-27T07:08:54;0.10;99.90
27224;DHT22;14965;50.660;13.226;2022-11-27T07:11:21;0.10;99.90
27224;DHT22;14965;50.660;13.226;2022-11-27T07:13:49;0.10;99.90
27224;DHT22;14965;50.660;13.226;2022-11-27T07:16:15;0.20;99.90
27224;DHT22;14965;50.660;13.226;2022-11-27T07:18:43;0.20;99.90
27224;DHT22;14965;50.660;13.226;2022-11-27T07:21:10;0.30;99.90
27224;DHT22;14965;50.660;13.226;2022-11-27T07:23:37;0.40;99.90
27224;DHT22;14965;50.660;13.226;2022-11-27T07:26:04;0.50;99.90
27224;DHT22;14965;50.660;13.226;2022-11-27T07:28:30;0.60;99.90
27224;DHT22;14965;50.660;13.226;2022-11-27T07:30:58;0.60;99.90
27224;DHT22;14965;50.660;13.226;2022-11-27T07:33:24;0.70;99.90
27224;DHT22;14965;50.660;13.226;2022-11-27T07:35:56;0.80;99.90
27224;DHT22;14965;50.660;13.226;2022-11-27T07:38:22;0.90;99.90
27224;DHT22;14965;50.660;13.226;2022-11-27T07:40:48;0.90;99.90
27224;DHT22;14965;50.660;13.226;2022-11-27T07:43:14;0.90;99.90
27224;DHT22;14965;50.660;13.226;2022-11-27T07:45:40;0.90;99.90
27224;DHT22;14965;50.660;13.226;2022-11-27T07:48:07;1.00;99.90
27224;DHT22;14965;50.660;13.226;2022-11-27T07:50:32;1.00;99.90
27224;DHT22;14965;50.660;13.226;2022-11-27T07:52:58;1.00;99.90
27224;DHT22;14965;50.660;13.226;2022-11-27T07:55:24;1.10;99.90
27224;DHT22;14965;50.660;13.226;2022-11-27T07:57:50;1.10;99.90
27224;DHT22;14965;50.660;13.226;2022-11-27T08:00:16;1.10;99.90
27224;DHT22;14965;50.660;13.226;2022-11-27T08:02:42;1.20;99.90
27224;DHT22;14965;50.660;13.226;2022-11-27T08:05:09;1.30;99.90
27224;DHT22;14965;50.660;13.226;2022-11-27T08:07:35;1.40;99.90
27224;DHT22;14965;50.660;13.226;2022-11-27T08:10:01;1.50;99.90
27224;DHT22;14965;50.660;13.226;2022-11-27T08:12:27;1.40;99.90
27224;DHT22;14965;50.660;13.226;2022-11-27T08:14:53;1.40;99.90
27224;DHT22;14965;50.660;13.226;2022-11-27T08:17:19;1.50;99.90
27224;DHT22;14965;50.660;13.226;2022-11-27T08:19:44;1.50;99.90
27224;DHT22;14965;50.660;13.226;2022-11-27T08:22:12;1.70;99.90
27224;DHT22;14965;50.660;13.226;2022-11-27T08:24:38;1.80;99.90
27224;DHT22;14965;50.660;13.226;2022-11-27T08:27:04;1.90;99.90
27224;DHT22;14965;50.660;13.226;2022-11-27T08:29:30;2.00;99.90
27224;DHT22;14965;50.660;13.226;2022-11-27T08:31:56;2.00;99.90
27224;DHT22;14965;50.660;13.226;2022-11-27T08:34:21;2.20;99.90
27224;DHT22;14965;50.660;13.226;2022-11-27T08:36:48;2.30;99.90
27224;DHT22;14965;50.660;13.226;2022-11-27T08:39:15;2.30;99.90
27224;DHT22;14965;50.660;13.226;2022-11-27T08:41:41;2.40;99.90
27224;DHT22;14965;50.660;13.226;2022-11-27T08:44:07;2.40;99.90
27224;DHT22;14965;50.660;13.226;2022-11-27T08:46:33;2.40;99.90
27224;DHT22;14965;50.660;13.226;2022-11-27T08:48:58;2.50;99.90
27224;DHT22;14965;50.660;13.226;2022-11-27T08:51:24;2.40;99.90
27224;DHT22;14965;50.660;13.226;2022-11-27T08:53:50;2.50;99.90
27224;DHT22;14965;50.660;13.226;2022-11-27T08:56:18;2.50;99.90
27224;DHT22;14965;50.660;13.226;2022-11-27T08:58:45;2.50;99.90
27224;DHT22;14965;50.660;13.226;2022-11-27T09:01:13;2.60;99.90
27224;DHT22;14965;50.660;13.226;2022-11-27T09:03:40;2.70;99.90
27224;DHT22;14965;50.660;13.226;2022-11-27T09:06:06;2.70;99.90
27224;DHT22;14965;50.660;13.226;2022-11-27T09:08:33;2.70;99.90
27224;DHT22;14965;50.660;13.226;2022-11-27T09:10:59;2.80;99.90
27224;DHT22;14965;50.660;13.226;2022-11-27T09:13:26;2.80;99.90
27224;DHT22;14965;50.660;13.226;2022-11-27T09:15:52;2.90;99.90
27224;DHT22;14965;50.660;13.226;2022-11-27T09:18:19;3.00;99.90
27224;DHT22;14965;50.660;13.226;2022-11-27T09:20:53;3.10;99.90
27224;DHT22;14965;50.660;13.226;2022-11-27T09:23:19;3.20;99.90
27224;DHT22;14965;50.660;13.226;2022-11-27T09:25:45;3.30;99.90
27224;DHT22;14965;50.660;13.226;2022-11-27T09:28:11;3.50;99.90
27224;DHT22;14965;50.660;13.226;2022-11-27T09:30:38;3.50;99.90
27224;DHT22;14965;50.660;13.226;2022-11-27T09:33:03;3.60;99.90
27224;DHT22;14965;50.660;13.226;2022-11-27T09:35:29;3.70;99.90
27224;DHT22;14965;50.660;13.226;2022-11-27T09:37:55;3.80;99.90
27224;DHT22;14965;50.660;13.226;2022-11-27T09:40:21;3.80;99.90
27224;DHT22;14965;50.660;13.226;2022-11-27T09:42:48;3.90;99.90
27224;DHT22;14965;50.660;13.226;2022-11-27T09:45:17;4.10;99.90
27224;DHT22;14965;50.660;13.226;2022-11-27T09:47:46;4.10;99.90
27224;DHT22;14965;50.660;13.226;2022-11-27T09:50:16;4.10;99.90
27224;DHT22;14965;50.660;13.226;2022-11-27T09:52:46;4.10;99.90
27224;DHT22;14965;50.660;13.226;2022-11-27T09:55:16;4.20;99.90
27224;DHT22;14965;50.660;13.226;2022-11-27T09:57:50;4.20;99.90
27224;DHT22;14965;50.660;13.226;2022-11-27T10:00:23;4.20;99.90
27224;DHT22;14965;50.660;13.226;2022-11-27T10:02:50;4.30;99.90
27224;DHT22;14965;50.660;13.226;2022-11-27T10:05:17;4.30;99.90
27224;DHT22;14965;50.660;13.226;2022-11-27T10:07:52;4.30;99.90
27224;DHT22;14965;50.660;13.226;2022-11-27T10:10:30;4.40;99.90
27224;DHT22;14965;50.660;13.226;2022-11-27T10:13:05;4.30;99.90
27224;DHT22;14965;50.660;13.226;2022-11-27T10:15:43;4.40;99.90
27224;DHT22;14965;50.660;13.226;2022-11-27T10:18:19;4.40;99.90
27224;DHT22;14965;50.660;13.226;2022-11-27T10:20:54;4.50;99.90
27224;DHT22;14965;50.660;13.226;2022-11-27T10:23:26;4.50;99.90
27224;DHT22;14965;50.660;13.226;2022-11-27T10:26:08;4.70;99.90
27224;DHT22;14965;50.660;13.226;2022-11-27T10:28:39;4.70;99.90
27224;DHT22;14965;50.660;13.226;2022-11-27T10:31:11;4.80;99.90
27224;DHT22;14965;50.660;13.226;2022-11-27T10:33:42;4.80;99.90
27224;DHT22;14965;50.660;13.226;2022-11-27T10:36:13;4.90;99.90
27224;DHT22;14965;50.660;13.226;2022-11-27T10:38:41;5.00;99.90
27224;DHT22;14965;50.660;13.226;2022-11-27T10:41:10;5.00;99.90
27224;DHT22;14965;50.660;13.226;2022-11-27T10:43:42;5.00;99.90
27224;DHT22;14965;50.660;13.226;2022-11-27T10:46:10;5.10;99.90
27224;DHT22;14965;50.660;13.226;2022-11-27T10:48:38;5.10;99.90
27224;DHT22;14965;50.660;13.226;2022-11-27T10:51:09;5.20;99.90
27224;DHT22;14965;50.660;13.226;2022-11-27T10:53:40;5.20;99.90
27224;DHT22;14965;50.660;13.226;2022-11-27T10:59:05;5.30;99.90
27224;DHT22;14965;50.660;13.226;2022-11-27T11:01:40;5.30;99.90
27224;DHT22;14965;50.660;13.226;2022-11-27T11:04:10;5.30;99.90
27224;DHT22;14965;50.660;13.226;2022-11-27T11:06:39;5.40;99.90
27224;DHT22;14965;50.660;13.226;2022-11-27T11:09:11;5.40;99.90
27224;DHT22;14965;50.660;13.226;2022-11-27T11:11:39;5.40;99.90
27224;DHT22;14965;50.660;13.226;2022-11-27T11:14:13;5.40;99.90
27224;DHT22;14965;50.660;13.226;2022-11-27T11:16:41;5.50;99.90
27224;DHT22;14965;50.660;13.226;2022-11-27T11:19:20;5.40;99.90
27224;DHT22;14965;50.660;13.226;2022-11-27T12:01:17;5.50;99.90
27224;DHT22;14965;50.660;13.226;2022-11-27T12:04:51;5.40;99.90
27224;DHT22;14965;50.660;13.226;2022-11-27T12:08:05;5.40;99.90
27224;DHT22;14965;50.660;13.226;2022-11-27T12:14:40;5.40;99.90
27224;DHT22;14965;50.660;13.226;2022-11-27T12:20:44;5.40;99.90
27224;DHT22;14965;50.660;13.226;2022-11-27T12:23:40;5.40;99.90
27224;DHT22;14965;50.660;13.226;2022-11-27T12:26:16;5.40;99.90
27224;DHT22;14965;50.660;13.226;2022-11-27T12:28:53;5.40;99.90
27224;DHT22;14965;50.660;13.226;2022-11-27T12:31:31;5.40;99.90
27224;DHT22;14965;50.660;13.226;2022-11-27T12:34:13;5.50;99.90
27224;DHT22;14965;50.660;13.226;2022-11-27T12:36:50;5.50;99.90
27224;DHT22;14965;50.660;13.226;2022-11-27T12:39:31;5.50;99.90
27224;DHT22;14965;50.660;13.226;2022-11-27T12:42:05;5.50;99.90
27224;DHT22;14965;50.660;13.226;2022-11-27T12:44:41;5.40;99.90
27224;DHT22;14965;50.660;13.226;2022-11-27T12:47:15;5.40;99.90
27224;DHT22;14965;50.660;13.226;2022-11-27T12:49:49;5.30;99.90
27224;DHT22;14965;50.660;13.226;2022-11-27T12:52:18;5.30;99.90
27224;DHT22;14965;50.660;13.226;2022-11-27T12:54:49;5.20;99.90
27224;DHT22;14965;50.660;13.226;2022-11-27T12:57:19;5.20;99.90
27224;DHT22;14965;50.660;13.226;2022-11-27T12:59:49;5.20;99.90
27224;DHT22;14965;50.660;13.226;2022-11-27T13:02:23;5.10;99.90
27224;DHT22;14965;50.660;13.226;2022-11-27T13:04:55;5.10;99.90
27224;DHT22;14965;50.660;13.226;2022-11-27T13:07:25;5.00;99.90
27224;DHT22;14965;50.660;13.226;2022-11-27T13:09:55;5.00;99.90
27224;DHT22;14965;50.660;13.226;2022-11-27T13:12:28;4.90;99.90
27224;DHT22;14965;50.660;13.226;2022-11-27T13:14:59;4.90;99.90
27224;DHT22;14965;50.660;13.226;2022-11-27T14:31:29;3.80;99.90
27224;DHT22;14965;50.660;13.226;2022-11-27T14:38:09;3.80;99.90
27224;DHT22;14965;50.660;13.226;2022-11-27T14:40:35;3.70;99.90
27224;DHT22;14965;50.660;13.226;2022-11-27T14:43:08;3.60;99.90
27224;DHT22;14965;50.660;13.226;2022-11-27T14:45:35;3.60;99.90
27224;DHT22;14965;50.660;13.226;2022-11-27T14:48:03;3.60;99.90
27224;DHT22;14965;50.660;13.226;2022-11-27T14:50:30;3.50;99.90
27224;DHT22;14965;50.660;13.226;2022-11-27T14:52:56;3.50;99.90
27224;DHT22;14965;50.660;13.226;2022-11-27T14:55:23;3.40;99.90
27224;DHT22;14965;50.660;13.226;2022-11-27T14:57:50;3.40;99.90
27224;DHT22;14965;50.660;13.226;2022-11-27T15:00:17;3.20;99.90
27224;DHT22;14965;50.660;13.226;2022-11-27T15:02:45;3.30;99.90
27224;DHT22;14965;50.660;13.226;2022-11-27T15:05:19;3.20;99.90
27224;DHT22;14965;50.660;13.226;2022-11-27T15:07:46;3.20;99.90
27224;DHT22;14965;50.660;13.226;2022-11-27T15:10:19;3.20;99.90
27224;DHT22;14965;50.660;13.226;2022-11-27T15:12:48;3.00;99.90
27224;DHT22;14965;50.660;13.226;2022-11-27T15:15:16;3.10;99.90
27224;DHT22;14965;50.660;13.226;2022-11-27T15:17:46;3.00;99.90
27224;DHT22;14965;50.660;13.226;2022-11-27T15:20:15;3.00;99.90
27224;DHT22;14965;50.660;13.226;2022-11-27T15:22:48;3.00;99.90
27224;DHT22;14965;50.660;13.226;2022-11-27T15:25:26;3.00;99.90
27224;DHT22;14965;50.660;13.226;2022-11-27T15:28:00;3.00;99.90
27224;DHT22;14965;50.660;13.226;2022-11-27T15:30:27;2.90;99.90
27224;DHT22;14965;50.660;13.226;2022-11-27T15:32:53;2.90;99.90
27224;DHT22;14965;50.660;13.226;2022-11-27T15:35:20;2.90;99.90
27224;DHT22;14965;50.660;13.226;2022-11-27T15:37:49;2.90;99.90
27224;DHT22;14965;50.660;13.226;2022-11-27T15:43:05;2.90;99.90
27224;DHT22;14965;50.660;13.226;2022-11-27T15:45:35;2.90;99.90
27224;DHT22;14965;50.660;13.226;2022-11-27T15:48:01;2.80;99.90
27224;DHT22;14965;50.660;13.226;2022-11-27T15:50:27;2.80;99.90
27224;DHT22;14965;50.660;13.226;2022-11-27T15:53:05;2.70;99.90
27224;DHT22;14965;50.660;13.226;2022-11-27T15:59:23;2.60;99.90
27224;DHT22;14965;50.660;13.226;2022-11-27T16:09:31;2.60;99.90
27224;DHT22;14965;50.660;13.226;2022-11-27T16:12:13;2.50;99.90
27224;DHT22;14965;50.660;13.226;2022-11-27T16:14:58;2.50;99.90
27224;DHT22;14965;50.660;13.226;2022-11-27T16:17:32;2.50;99.90
27224;DHT22;14965;50.660;13.226;2022-11-27T16:20:07;2.50;99.90
27224;DHT22;14965;50.660;13.226;2022-11-27T16:22:36;2.50;99.90
27224;DHT22;14965;50.660;13.226;2022-11-27T16:25:03;2.50;99.90
27224;DHT22;14965;50.660;13.226;2022-11-27T16:27:29;2.50;99.90
27224;DHT22;14965;50.660;13.226;2022-11-27T16:29:55;2.50;99.90
27224;DHT22;14965;50.660;13.226;2022-11-27T16:32:21;2.50;99.90
27224;DHT22;14965;50.660;13.226;2022-11-27T16:34:49;2.40;99.90
27224;DHT22;14965;50.660;13.226;2022-11-27T16:37:15;2.50;99.90
27224;DHT22;14965;50.660;13.226;2022-11-27T16:39:43;2.50;99.90
27224;DHT22;14965;50.660;13.226;2022-11-27T16:42:11;2.50;99.90
27224;DHT22;14965;50.660;13.226;2022-11-27T16:44:36;2.50;99.90
27224;DHT22;14965;50.660;13.226;2022-11-27T16:47:02;2.50;99.90
27224;DHT22;14965;50.660;13.226;2022-11-27T16:49:28;2.40;99.90
27224;DHT22;14965;50.660;13.226;2022-11-27T16:51:54;2.40;99.90
27224;DHT22;14965;50.660;13.226;2022-11-27T16:54:20;2.40;99.90
27224;DHT22;14965;50.660;13.226;2022-11-27T16:56:45;2.40;99.90
27224;DHT22;14965;50.660;13.226;2022-11-27T16:59:13;2.40;99.90
27224;DHT22;14965;50.660;13.226;2022-11-27T17:01:39;2.40;99.90
27224;DHT22;14965;50.660;13.226;2022-11-27T17:04:06;2.40;99.90
27224;DHT22;14965;50.660;13.226;2022-11-27T17:06:32;2.40;99.90
27224;DHT22;14965;50.660;13.226;2022-11-27T17:08:59;2.40;99.90
27224;DHT22;14965;50.660;13.226;2022-11-27T17:11:27;2.30;99.90
27224;DHT22;14965;50.660;13.226;2022-11-27T17:13:55;2.30;99.90
27224;DHT22;14965;50.660;13.226;2022-11-27T17:16:23;2.40;99.90
27224;DHT22;14965;50.660;13.226;2022-11-27T17:18:49;2.40;99.90
27224;DHT22;14965;50.660;13.226;2022-11-27T17:21:15;2.40;99.90
27224;DHT22;14965;50.660;13.226;2022-11-27T17:23:43;2.50;99.90
27224;DHT22;14965;50.660;13.226;2022-11-27T17:26:09;2.50;99.90
27224;DHT22;14965;50.660;13.226;2022-11-27T17:28:37;2.50;99.90
27224;DHT22;14965;50.660;13.226;2022-11-27T17:31:07;2.50;99.90
27224;DHT22;14965;50.660;13.226;2022-11-27T17:33:35;2.50;99.90
27224;DHT22;14965;50.660;13.226;2022-11-27T17:36:01;2.50;99.90
27224;DHT22;14965;50.660;13.226;2022-11-27T17:38:27;2.50;99.90
27224;DHT22;14965;50.660;13.226;2022-11-27T17:40:54;2.60;99.90
27224;DHT22;14965;50.660;13.226;2022-11-27T17:43:24;2.70;99.90
27224;DHT22;14965;50.660;13.226;2022-11-27T17:45:50;2.70;99.90
27224;DHT22;14965;50.660;13.226;2022-11-27T17:48:16;2.80;99.90
27224;DHT22;14965;50.660;13.226;2022-11-27T17:50:43;2.80;99.90
27224;DHT22;14965;50.660;13.226;2022-11-27T17:53:09;2.80;99.90
27224;DHT22;14965;50.660;13.226;2022-11-27T17:55:34;2.90;99.90
27224;DHT22;14965;50.660;13.226;2022-11-27T17:58:01;2.90;99.90
27224;DHT22;14965;50.660;13.226;2022-11-27T18:00:27;2.90;99.90